Time;durP1;ratioP1;P1;durP2;ratioP2;P2;SDS_P1;SDS_P2;PMS_P1;PMS_P2;Temp;Humidity;BMP_temperature;BMP_pressure;BME280_temperature;BME280_humidity;BME280_pressure;Samples;Min_cycle;Max_cycle;Signal;HPM_P1;HPM_P2
2022/12/22 03:28:01;;;;;;;246.52;17.42;;;;;;;;;;5030979;28;20121;-41
2022/12/22 03:30:28;;;;;;;202.68;14.45;;;;;;;;;;5031950;28;20071;-41
2022/12/22 03:32:56;;;;;;;216.70;15.30;;;;;;;;;;5031679;28;20033;-41
2022/12/22 03:35:22;;;;;;;161.05;11.65;;;;;;;;;;5031818;28;20028;-41
2022/12/22 03:37:49;;;;;;;66.72;5.00;;;;;;;;;;5031628;28;20068;-41
2022/12/22 03:40:16;;;;;;;32.88;3.58;;;;;;;;;;5031685;28;20022;-41
2022/12/22 03:48:14;;;;;;;13.95;1.85;;;;;;;;;;5029995;28;20044;-42
2022/12/22 03:50:41;;;;;;;10.20;2.03;;;;;;;;;;5030304;28;20108;-42
2022/12/22 03:53:07;;;;;;;8.98;1.83;;;;;;;;;;5029914;28;20025;-41
2022/12/22 03:55:34;;;;;;;13.15;2.00;;;;;;;;;;5030845;28;20124;-41
2022/12/22 03:58:01;;;;;;;11.85;2.20;;;;;;;;;;5031213;28;20059;-41
2022/12/22 04:00:28;;;;;;;8.27;1.60;;;;;;;;;;5032494;28;20026;-41
2022/12/22 04:02:57;;;;;;;5.95;1.60;;;;;;;;;;5033017;28;20017;-40
2022/12/22 04:05:25;;;;;;;7.20;1.30;;;;;;;;;;5032184;28;20053;-41
2022/12/22 04:07:52;;;;;;;7.70;1.58;;;;;;;;;;5032554;28;20056;-41
2022/12/22 04:13:04;;;;;;;6.90;1.77;;;;;;;;;;5032377;28;20430;-41
2022/12/22 04:15:32;;;;;;;4.50;1.20;;;;;;;;;;5032529;28;20029;-41
2022/12/22 04:17:59;;;;;;;11.07;1.50;;;;;;;;;;5032499;28;20057;-41
2022/12/22 04:20:26;;;;;;;7.63;1.27;;;;;;;;;;5032382;28;20021;-41
2022/12/22 04:22:54;;;;;;;7.10;1.73;;;;;;;;;;5032303;28;20072;-41
2022/12/22 04:25:21;;;;;;;3.63;1.20;;;;;;;;;;5032224;28;20033;-41
2022/12/22 04:27:48;;;;;;;4.53;1.00;;;;;;;;;;5032322;28;20029;-39
2022/12/22 04:30:15;;;;;;;7.00;1.20;;;;;;;;;;5031764;28;20084;-41
2022/12/22 04:32:42;;;;;;;4.43;1.40;;;;;;;;;;5032115;28;20060;-41
2022/12/22 04:35:09;;;;;;;7.30;1.17;;;;;;;;;;5032274;28;20030;-41
2022/12/22 04:37:36;;;;;;;3.40;1.20;;;;;;;;;;5032029;28;20486;-41
2022/12/22 04:40:03;;;;;;;3.08;1.10;;;;;;;;;;5032097;28;20100;-41
2022/12/22 04:42:30;;;;;;;5.93;1.10;;;;;;;;;;5032077;28;20026;-41
2022/12/22 04:44:57;;;;;;;2.92;1.00;;;;;;;;;;5032004;28;20407;-41
2022/12/22 04:47:24;;;;;;;4.65;0.80;;;;;;;;;;5032007;28;20426;-41
2022/12/22 04:49:51;;;;;;;5.32;0.90;;;;;;;;;;5032047;28;20025;-41
2022/12/22 04:52:18;;;;;;;4.25;0.80;;;;;;;;;;5031820;28;20475;-41
2022/12/22 04:54:45;;;;;;;2.15;0.88;;;;;;;;;;5031991;28;20028;-41
2022/12/22 04:57:12;;;;;;;2.00;0.80;;;;;;;;;;5014112;28;20414;-41
2022/12/22 04:59:39;;;;;;;2.50;0.82;;;;;;;;;;5031978;28;20030;-41
2022/12/22 05:02:06;;;;;;;2.35;0.77;;;;;;;;;;5031118;28;20387;-41
2022/12/22 05:04:33;;;;;;;2.63;0.88;;;;;;;;;;5031644;28;20120;-41
2022/12/22 05:07:00;;;;;;;3.47;0.80;;;;;;;;;;5031844;28;20037;-41
2022/12/22 05:09:26;;;;;;;3.13;0.90;;;;;;;;;;5031845;28;20017;-41
2022/12/22 05:11:53;;;;;;;4.65;0.82;;;;;;;;;;5031630;28;20021;-41
2022/12/22 05:14:20;;;;;;;4.38;0.90;;;;;;;;;;5031823;28;20403;-41
2022/12/22 05:16:47;;;;;;;1.60;0.50;;;;;;;;;;5031834;28;20467;-42
2022/12/22 05:19:14;;;;;;;2.85;0.82;;;;;;;;;;5031687;28;20025;-41
2022/12/22 05:21:41;;;;;;;4.90;1.02;;;;;;;;;;5031529;28;20108;-41
2022/12/22 05:24:08;;;;;;;2.63;0.80;;;;;;;;;;5031701;28;20061;-41
2022/12/22 05:26:35;;;;;;;3.22;0.95;;;;;;;;;;5031770;28;20048;-41
2022/12/22 05:29:02;;;;;;;5.60;0.77;;;;;;;;;;5031273;28;20041;-41
2022/12/22 05:31:29;;;;;;;2.22;0.60;;;;;;;;;;5031416;28;20022;-41
2022/12/22 05:33:56;;;;;;;2.05;0.60;;;;;;;;;;5031696;28;20473;-42
2022/12/22 05:36:23;;;;;;;3.65;0.80;;;;;;;;;;5031612;28;20053;-41
2022/12/22 05:38:50;;;;;;;12.05;1.38;;;;;;;;;;5031609;28;20100;-41
2022/12/22 05:41:17;;;;;;;3.47;0.95;;;;;;;;;;5031435;28;20025;-41
2022/12/22 05:43:44;;;;;;;3.00;0.82;;;;;;;;;;5016528;28;20108;-41
2022/12/22 05:46:11;;;;;;;4.47;0.80;;;;;;;;;;5035324;28;20467;-41
2022/12/22 05:48:38;;;;;;;4.20;0.82;;;;;;;;;;5035179;28;20475;-41
2022/12/22 05:51:06;;;;;;;3.08;0.88;;;;;;;;;;5035194;28;20013;-41
2022/12/22 05:53:33;;;;;;;5.82;0.90;;;;;;;;;;5035109;28;20018;-41
2022/12/22 05:56:00;;;;;;;6.80;1.30;;;;;;;;;;5035172;28;20052;-41
2022/12/22 05:58:27;;;;;;;6.75;1.17;;;;;;;;;;5034880;28;20022;-41
2022/12/22 06:00:57;;;;;;;3.75;0.80;;;;;;;;;;5032538;28;20033;-41
2022/12/22 06:03:24;;;;;;;5.00;0.75;;;;;;;;;;5033869;28;20037;-42
2022/12/22 06:05:51;;;;;;;3.08;0.95;;;;;;;;;;5034691;28;20057;-41
2022/12/22 06:08:18;;;;;;;5.45;0.82;;;;;;;;;;5034592;28;20029;-42
2022/12/22 06:10:45;;;;;;;3.20;0.98;;;;;;;;;;5034562;28;20033;-41
2022/12/22 06:13:11;;;;;;;4.75;0.88;;;;;;;;;;5034716;28;20032;-42
2022/12/22 06:15:38;;;;;;;2.85;0.60;;;;;;;;;;5034900;28;20428;-42
2022/12/22 06:18:05;;;;;;;3.75;0.80;;;;;;;;;;5034767;28;20028;-41
2022/12/22 06:20:32;;;;;;;2.53;0.80;;;;;;;;;;5034725;28;20029;-41
2022/12/22 06:22:59;;;;;;;2.30;0.70;;;;;;;;;;5034081;28;20467;-41
2022/12/22 06:25:26;;;;;;;11.77;1.20;;;;;;;;;;5034481;28;20032;-41
2022/12/22 06:27:53;;;;;;;9.05;1.10;;;;;;;;;;5034552;28;20025;-41
2022/12/22 06:30:20;;;;;;;1.92;0.60;;;;;;;;;;5034432;28;20821;-42
2022/12/22 06:32:47;;;;;;;4.68;0.80;;;;;;;;;;5034303;28;20028;-41
2022/12/22 06:35:14;;;;;;;1.88;0.60;;;;;;;;;;5034368;28;20535;-41
2022/12/22 06:37:41;;;;;;;2.75;0.55;;;;;;;;;;5034299;28;20434;-41
2022/12/22 06:40:09;;;;;;;1.90;0.75;;;;;;;;;;5034373;28;20482;-42
2022/12/22 06:45:20;;;;;;;7.18;1.15;;;;;;;;;;5034308;28;20470;-41
2022/12/22 06:47:47;;;;;;;9.20;1.35;;;;;;;;;;5034152;28;20029;-42
2022/12/22 06:50:14;;;;;;;4.53;1.17;;;;;;;;;;5034171;28;20450;-41
2022/12/22 06:52:41;;;;;;;4.45;1.30;;;;;;;;;;5033866;28;20039;-42
2022/12/22 06:55:09;;;;;;;7.53;1.23;;;;;;;;;;5033798;28;20026;-42
2022/12/22 06:57:36;;;;;;;8.55;1.42;;;;;;;;;;5034077;28;20032;-41
2022/12/22 07:00:03;;;;;;;7.32;1.20;;;;;;;;;;5033807;28;20032;-42
2022/12/22 07:02:30;;;;;;;6.88;0.90;;;;;;;;;;5033893;28;20021;-42
2022/12/22 07:04:57;;;;;;;6.93;1.00;;;;;;;;;;5033580;28;20049;-42
2022/12/22 07:07:24;;;;;;;4.55;0.98;;;;;;;;;;5033512;28;20364;-42
2022/12/22 07:09:51;;;;;;;1.50;0.70;;;;;;;;;;5033629;28;20398;-41
2022/12/22 07:12:18;;;;;;;1.92;0.75;;;;;;;;;;5033611;28;20096;-42
2022/12/22 07:14:45;;;;;;;12.18;0.95;;;;;;;;;;5033664;28;20442;-41
2022/12/22 07:17:12;;;;;;;11.05;1.15;;;;;;;;;;5033685;28;20026;-41
2022/12/22 07:19:39;;;;;;;13.63;1.20;;;;;;;;;;5033602;28;20052;-41
2022/12/22 07:22:06;;;;;;;12.93;1.00;;;;;;;;;;5033357;28;20017;-42
2022/12/22 07:24:33;;;;;;;8.48;1.30;;;;;;;;;;5033426;28;20052;-41
2022/12/22 07:27:00;;;;;;;7.15;1.10;;;;;;;;;;5033179;28;20021;-41
2022/12/22 07:29:27;;;;;;;9.18;0.90;;;;;;;;;;5033380;28;20041;-42
2022/12/22 07:31:54;;;;;;;1.83;0.70;;;;;;;;;;5033039;28;20029;-41
2022/12/22 07:34:20;;;;;;;4.93;0.70;;;;;;;;;;5033365;28;20495;-41
2022/12/22 07:36:47;;;;;;;3.92;0.68;;;;;;;;;;5033241;28;20033;-41
2022/12/22 07:39:14;;;;;;;2.95;0.95;;;;;;;;;;5033114;28;20497;-41
2022/12/22 07:44:26;;;;;;;2.72;0.60;;;;;;;;;;5033245;28;20243;-41
2022/12/22 07:46:53;;;;;;;5.45;0.90;;;;;;;;;;5032949;28;20030;-41
2022/12/22 07:52:05;;;;;;;3.08;0.93;;;;;;;;;;5032811;28;20082;-41
2022/12/22 07:54:33;;;;;;;2.63;0.93;;;;;;;;;;5032980;28;20029;-41
2022/12/22 07:57:00;;;;;;;2.67;0.90;;;;;;;;;;5032830;28;20044;-41
2022/12/22 07:59:27;;;;;;;5.70;1.05;;;;;;;;;;5032927;28;20021;-41
2022/12/22 08:01:54;;;;;;;1.98;0.90;;;;;;;;;;5014732;28;20474;-41
2022/12/22 08:04:21;;;;;;;3.88;1.02;;;;;;;;;;5032302;28;20026;-41
2022/12/22 08:06:48;;;;;;;4.38;1.00;;;;;;;;;;5031742;28;20045;-41
2022/12/22 08:09:16;;;;;;;5.18;1.00;;;;;;;;;;5032514;28;20079;-41
2022/12/22 08:11:43;;;;;;;3.85;1.15;;;;;;;;;;5014715;28;20079;-41
2022/12/22 08:14:10;;;;;;;3.60;1.02;;;;;;;;;;5032502;28;20025;-41
2022/12/22 08:16:37;;;;;;;4.30;1.02;;;;;;;;;;5032506;28;20030;-41
2022/12/22 08:19:04;;;;;;;10.68;1.50;;;;;;;;;;5032482;28;20029;-41
2022/12/22 08:21:31;;;;;;;10.23;1.30;;;;;;;;;;5032352;28;20083;-41
2022/12/22 08:23:58;;;;;;;17.42;1.58;;;;;;;;;;5032255;28;20305;-41
2022/12/22 08:26:30;;;;;;;13.25;1.50;;;;;;;;;;5032368;28;20105;-41
2022/12/22 08:29:01;;;;;;;9.77;1.42;;;;;;;;;;5032254;28;20045;-41
2022/12/22 08:31:29;;;;;;;10.73;1.30;;;;;;;;;;5032277;28;20033;-41
2022/12/22 08:33:57;;;;;;;7.20;1.30;;;;;;;;;;5032225;28;20553;-41
2022/12/22 08:36:24;;;;;;;4.40;1.00;;;;;;;;;;5032200;28;20025;-42
2022/12/22 08:38:51;;;;;;;3.80;0.80;;;;;;;;;;5031991;28;20036;-41
2022/12/22 08:41:48;;;;;;;3.40;1.02;;;;;;;;;;5032101;28;20017;-42
2022/12/22 08:44:05;;;;;;;6.28;1.00;;;;;;;;;;5031838;28;20038;-42
2022/12/22 08:46:33;;;;;;;4.60;1.10;;;;;;;;;;5032095;28;20025;-41
2022/12/22 08:49:00;;;;;;;4.18;0.95;;;;;;;;;;5032088;28;20040;-41
2022/12/22 08:51:27;;;;;;;3.20;1.05;;;;;;;;;;5031965;28;20163;-42
2022/12/22 08:53:54;;;;;;;5.93;0.98;;;;;;;;;;5031994;28;20105;-42
2022/12/22 08:56:20;;;;;;;4.03;0.95;;;;;;;;;;5032075;28;20230;-41
2022/12/22 08:58:47;;;;;;;6.68;0.95;;;;;;;;;;5031858;28;20021;-42
2022/12/22 09:01:22;;;;;;;8.52;1.33;;;;;;;;;;5031893;28;20018;-42
2022/12/22 09:03:53;;;;;;;6.72;1.23;;;;;;;;;;5031823;28;20029;-41
2022/12/22 09:06:20;;;;;;;25.30;2.30;;;;;;;;;;5031578;28;20511;-42
2022/12/22 09:08:48;;;;;;;24.38;2.00;;;;;;;;;;5031690;28;20028;-41
2022/12/22 09:11:15;;;;;;;9.80;1.77;;;;;;;;;;5031684;28;20030;-42
2022/12/22 09:13:46;;;;;;;15.35;1.70;;;;;;;;;;5033864;28;20021;-42
2022/12/22 09:16:20;;;;;;;14.80;1.33;;;;;;;;;;5040938;28;20037;-41
2022/12/22 09:18:54;;;;;;;7.78;1.23;;;;;;;;;;5035453;28;20428;-41
2022/12/22 09:21:28;;;;;;;15.00;1.65;;;;;;;;;;5035258;28;20463;-42
2022/12/22 09:24:03;;;;;;;12.93;1.52;;;;;;;;;;5035761;28;20030;-41
2022/12/22 09:26:36;;;;;;;18.00;1.77;;;;;;;;;;5034350;28;20037;-41
2022/12/22 09:29:09;;;;;;;13.32;1.88;;;;;;;;;;5035507;28;20017;-41
2022/12/22 09:31:41;;;;;;;20.75;2.28;;;;;;;;;;5035498;28;20529;-41
2022/12/22 09:34:15;;;;;;;26.30;2.35;;;;;;;;;;5035610;28;20022;-41
2022/12/22 09:36:47;;;;;;;27.08;2.40;;;;;;;;;;5035373;28;20013;-41
2022/12/22 09:39:21;;;;;;;30.35;2.50;;;;;;;;;;5035390;28;20107;-41
2022/12/22 09:41:56;;;;;;;18.50;2.35;;;;;;;;;;5035202;28;20075;-41
2022/12/22 09:44:30;;;;;;;33.20;2.70;;;;;;;;;;5035267;28;20701;-41
2022/12/22 09:47:13;;;;;;;19.23;1.92;;;;;;;;;;5035162;28;20028;-41
2022/12/22 09:49:46;;;;;;;14.50;1.70;;;;;;;;;;5035242;28;20503;-39
2022/12/22 09:52:15;;;;;;;;;;;;;;;;;;5035475;28;20754;-39
2022/12/22 09:54:48;;;;;;;52.35;4.82;;;;;;;;;;5035237;28;19928;-41
2022/12/22 09:57:19;;;;;;;26.27;2.58;;;;;;;;;;5035007;28;20052;-41
2022/12/22 09:59:50;;;;;;;25.30;2.05;;;;;;;;;;5017257;28;20021;-41
2022/12/22 10:02:37;;;;;;;22.75;2.38;;;;;;;;;;5034372;28;20501;-41
2022/12/22 10:05:29;;;;;;;40.15;3.90;;;;;;;;;;5034317;28;20057;-41
2022/12/22 10:07:59;;;;;;;;;;;;;;;;;;5034515;28;20029;-41
2022/12/22 10:10:33;;;;;;;26.70;2.88;;;;;;;;;;5034689;28;19909;-41
2022/12/22 10:13:07;;;;;;;31.80;3.60;;;;;;;;;;5034584;28;20487;-41
2022/12/22 10:15:41;;;;;;;70.65;4.60;;;;;;;;;;5034708;28;20468;-41
2022/12/22 10:18:21;;;;;;;53.28;4.80;;;;;;;;;;5034421;28;20083;-41
2022/12/22 10:21:14;;;;;;;38.35;4.28;;;;;;;;;;5034521;28;20515;-42
2022/12/22 10:23:50;;;;;;;51.88;4.60;;;;;;;;;;5016859;28;20075;-41
2022/12/22 10:26:27;;;;;;;40.42;3.50;;;;;;;;;;5034619;28;20024;-41
2022/12/22 10:29:12;;;;;;;18.02;2.53;;;;;;;;;;5033601;28;20060;-41
2022/12/22 10:32:04;;;;;;;19.98;3.03;;;;;;;;;;5034365;28;20029;-41
2022/12/22 10:34:36;;;;;;;24.40;3.15;;;;;;;;;;5034139;28;20049;-41
2022/12/22 10:37:07;;;;;;;26.58;3.35;;;;;;;;;;5033571;28;20173;-41
2022/12/22 10:39:37;;;;;;;25.13;3.20;;;;;;;;;;5034255;28;20076;-41
2022/12/22 10:42:16;;;;;;;26.90;3.15;;;;;;;;;;5033692;28;20018;-42
2022/12/22 10:44:49;;;;;;;17.40;2.28;;;;;;;;;;5031091;28;20453;-41
2022/12/22 10:47:22;;;;;;;54.05;3.80;;;;;;;;;;5028937;28;20487;-46
2022/12/22 10:49:54;;;;;;;26.52;2.88;;;;;;;;;;5032517;28;20042;-41
2022/12/22 10:52:32;;;;;;;34.35;4.28;;;;;;;;;;5028504;28;20627;-43
2022/12/22 10:55:19;;;;;;;42.22;4.22;;;;;;;;;;5029179;28;20105;-44
2022/12/22 10:57:52;;;;;;;27.25;3.72;;;;;;;;;;5031175;28;20030;-45
2022/12/22 11:00:31;;;;;;;27.30;3.75;;;;;;;;;;5031185;28;20033;-43
2022/12/22 11:03:03;;;;;;;34.13;3.22;;;;;;;;;;5031646;28;20030;-46
2022/12/22 11:05:33;;;;;;;32.03;4.32;;;;;;;;;;5031222;28;20057;-44
2022/12/22 11:08:09;;;;;;;29.58;3.65;;;;;;;;;;5030700;28;20029;-49
2022/12/22 11:10:55;;;;;;;26.48;3.35;;;;;;;;;;5033256;28;20108;-45
2022/12/22 11:13:28;;;;;;;23.25;2.72;;;;;;;;;;5032108;28;20036;-44
2022/12/22 11:16:05;;;;;;;15.52;2.45;;;;;;;;;;5032554;28;20152;-46
2022/12/22 11:18:41;;;;;;;19.92;3.10;;;;;;;;;;5029850;28;20022;-42
2022/12/22 11:21:20;;;;;;;16.20;2.70;;;;;;;;;;5032767;28;20026;-45
2022/12/22 11:24:07;;;;;;;20.55;2.58;;;;;;;;;;5032450;28;20368;-45
2022/12/22 11:26:40;;;;;;;16.05;3.05;;;;;;;;;;5040939;28;20021;-46
2022/12/22 11:29:22;;;;;;;21.00;3.00;;;;;;;;;;5051219;28;20025;-45
2022/12/22 11:31:56;;;;;;;20.13;3.08;;;;;;;;;;5052890;28;20025;-45
2022/12/22 11:34:41;;;;;;;17.58;2.90;;;;;;;;;;5052445;28;20112;-45
2022/12/22 11:37:27;;;;;;;17.42;3.00;;;;;;;;;;5050305;28;20116;-44
2022/12/22 11:40:03;;;;;;;15.20;2.38;;;;;;;;;;5052039;28;20036;-45
2022/12/22 11:42:51;;;;;;;13.65;2.38;;;;;;;;;;5050240;28;20025;-46
2022/12/22 11:45:38;;;;;;;16.73;2.35;;;;;;;;;;5035750;28;20076;-45
2022/12/22 11:48:28;;;;;;;27.73;3.15;;;;;;;;;;5030130;28;20044;-43
2022/12/22 11:51:08;;;;;;;25.67;2.55;;;;;;;;;;5032451;28;20415;-43
2022/12/22 11:53:52;;;;;;;33.17;3.33;;;;;;;;;;5029782;28;20024;-43
2022/12/22 11:56:31;;;;;;;17.98;2.65;;;;;;;;;;5032360;28;20025;-43
2022/12/22 11:59:05;;;;;;;18.85;2.97;;;;;;;;;;5030912;28;20113;-43
2022/12/22 12:01:47;;;;;;;12.52;2.90;;;;;;;;;;5032485;28;20013;-41
2022/12/22 12:04:23;;;;;;;29.83;3.00;;;;;;;;;;5029905;28;20033;-42
2022/12/22 12:07:05;;;;;;;21.23;2.47;;;;;;;;;;5030016;28;20151;-43
2022/12/22 12:09:48;;;;;;;24.98;2.80;;;;;;;;;;5030663;28;20048;-41
2022/12/22 12:12:21;;;;;;;20.92;3.00;;;;;;;;;;5032301;28;20105;-40
2022/12/22 12:15:01;;;;;;;21.42;2.78;;;;;;;;;;5032251;28;20487;-40
2022/12/22 12:17:34;;;;;;;22.63;3.03;;;;;;;;;;5028840;28;20017;-44
2022/12/22 12:20:20;;;;;;;39.65;3.38;;;;;;;;;;5032409;28;20033;-40
2022/12/22 12:23:02;;;;;;;24.58;3.20;;;;;;;;;;5032370;28;20379;-43
2022/12/22 12:25:39;;;;;;;26.45;3.13;;;;;;;;;;5032330;28;20083;-42
2022/12/22 12:28:27;;;;;;;28.15;2.95;;;;;;;;;;5028481;28;20032;-38
2022/12/22 12:31:01;;;;;;;23.02;2.58;;;;;;;;;;5032135;28;20141;-38
2022/12/22 12:33:40;;;;;;;24.50;2.83;;;;;;;;;;5032213;28;20026;-39
2022/12/22 12:36:18;;;;;;;26.90;3.10;;;;;;;;;;5032082;28;20028;-38
2022/12/22 12:38:50;;;;;;;23.30;2.67;;;;;;;;;;5029650;28;20080;-38
2022/12/22 12:41:26;;;;;;;26.77;3.17;;;;;;;;;;5030870;28;20041;-38
2022/12/22 12:44:01;;;;;;;20.98;3.00;;;;;;;;;;5032068;28;20037;-38
2022/12/22 12:46:59;;;;;;;25.92;3.05;;;;;;;;;;5031973;28;20030;-38
2022/12/22 12:49:41;;;;;;;16.25;2.70;;;;;;;;;;5010223;28;20030;-38
2022/12/22 12:52:15;;;;;;;20.52;2.70;;;;;;;;;;5009326;28;20022;-38
2022/12/22 12:54:48;;;;;;;17.63;2.78;;;;;;;;;;5011141;28;20060;-38
2022/12/22 12:57:33;;;;;;;17.13;2.60;;;;;;;;;;5010569;28;20523;-38
2022/12/22 13:00:06;;;;;;;15.88;2.75;;;;;;;;;;5012313;28;20052;-38
2022/12/22 13:02:41;;;;;;;14.00;2.40;;;;;;;;;;5011160;28;20018;-38
2022/12/22 13:05:13;;;;;;;17.52;2.70;;;;;;;;;;5010123;28;20416;-38
2022/12/22 13:08:01;;;;;;;15.23;2.03;;;;;;;;;;5010725;28;20046;-38
2022/12/22 13:10:35;;;;;;;21.50;2.67;;;;;;;;;;5012196;28;20030;-38
2022/12/22 13:13:09;;;;;;;9.70;2.50;;;;;;;;;;5011915;28;20092;-38
2022/12/22 13:15:46;;;;;;;14.57;2.50;;;;;;;;;;5009887;28;20030;-38
2022/12/22 13:18:31;;;;;;;14.35;2.63;;;;;;;;;;5010649;28;20029;-38
2022/12/22 13:21:06;;;;;;;15.75;2.30;;;;;;;;;;5012025;28;20029;-38
2022/12/22 13:23:41;;;;;;;21.38;2.67;;;;;;;;;;5012023;28;20076;-38
2022/12/22 13:26:25;;;;;;;11.38;1.95;;;;;;;;;;5011524;28;20034;-38
2022/12/22 13:29:02;;;;;;;17.67;2.58;;;;;;;;;;5009239;28;20037;-38
2022/12/22 13:31:37;;;;;;;16.88;2.83;;;;;;;;;;5011961;28;20049;-38
2022/12/22 13:34:26;;;;;;;20.77;2.20;;;;;;;;;;5011959;28;20063;-38
2022/12/22 13:37:00;;;;;;;12.82;2.00;;;;;;;;;;5010415;28;20033;-39
2022/12/22 13:39:34;;;;;;;10.38;2.53;;;;;;;;;;5009690;28;20030;-38
2022/12/22 13:42:08;;;;;;;17.27;2.30;;;;;;;;;;5011840;28;20442;-38
2022/12/22 13:44:42;;;;;;;27.00;3.05;;;;;;;;;;5011636;28;20124;-38
2022/12/22 13:47:17;;;;;;;22.70;2.75;;;;;;;;;;5010380;28;20075;-38
2022/12/22 13:49:48;;;;;;;23.38;3.03;;;;;;;;;;5010555;28;20057;-38
2022/12/22 13:52:21;;;;;;;17.85;3.42;;;;;;;;;;5010442;28;20022;-38
2022/12/22 13:54:53;;;;;;;19.67;3.17;;;;;;;;;;5010721;28;20038;-39
2022/12/22 13:57:25;;;;;;;24.58;2.92;;;;;;;;;;5010300;28;20038;-38
2022/12/22 13:59:57;;;;;;;16.52;3.40;;;;;;;;;;5011764;28;20034;-38
2022/12/22 14:02:34;;;;;;;20.83;3.55;;;;;;;;;;5009694;28;20048;-38
2022/12/22 14:05:14;;;;;;;21.40;3.88;;;;;;;;;;5014014;28;20396;-38
2022/12/22 14:08:03;;;;;;;30.02;3.50;;;;;;;;;;5013556;28;20111;-38
2022/12/22 14:10:36;;;;;;;26.73;3.75;;;;;;;;;;5002976;28;20038;-39
2022/12/22 14:13:08;;;;;;;22.63;3.95;;;;;;;;;;5014712;28;20546;-38
2022/12/22 14:15:39;;;;;;;29.35;4.00;;;;;;;;;;5013310;28;20044;-38
2022/12/22 14:18:22;;;;;;;26.88;3.70;;;;;;;;;;5013631;28;20038;-38
2022/12/22 14:20:52;;;;;;;30.67;3.72;;;;;;;;;;5014870;28;20033;-38
2022/12/22 14:23:22;;;;;;;27.35;3.97;;;;;;;;;;4997349;28;20369;-38
2022/12/22 14:25:54;;;;;;;28.90;3.65;;;;;;;;;;5012800;28;20049;-38
2022/12/22 14:28:35;;;;;;;32.38;5.30;;;;;;;;;;5013172;28;20030;-38
2022/12/22 14:31:09;;;;;;;35.50;4.50;;;;;;;;;;5014754;28;20037;-38
2022/12/22 14:33:39;;;;;;;32.75;4.55;;;;;;;;;;5014740;28;20125;-38
2022/12/22 14:36:22;;;;;;;34.73;5.40;;;;;;;;;;5014830;28;20072;-38
2022/12/22 14:38:56;;;;;;;29.33;4.78;;;;;;;;;;5011096;28;20059;-38
2022/12/22 14:41:41;;;;;;;31.77;4.90;;;;;;;;;;5014634;28;20033;-38
2022/12/22 14:44:17;;;;;;;29.92;4.85;;;;;;;;;;5016335;28;20529;-39
2022/12/22 14:46:44;;;;;;;20.92;4.03;;;;;;;;;;5021656;28;20501;-38
2022/12/22 14:49:16;;;;;;;37.00;4.68;;;;;;;;;;5013106;28;20505;-38
2022/12/22 14:51:52;;;;;;;31.30;4.50;;;;;;;;;;5013557;28;20022;-38
2022/12/22 14:54:20;;;;;;;25.92;3.75;;;;;;;;;;5014360;28;20480;-38
2022/12/22 14:56:51;;;;;;;30.90;3.55;;;;;;;;;;5012925;28;20018;-38
2022/12/22 14:59:25;;;;;;;33.65;4.65;;;;;;;;;;5014377;28;20033;-39
2022/12/22 15:02:02;;;;;;;37.70;4.55;;;;;;;;;;5011875;28;20051;-38
2022/12/22 15:04:30;;;;;;;29.70;4.25;;;;;;;;;;5013999;28;20066;-39
2022/12/22 15:07:15;;;;;;;34.65;4.90;;;;;;;;;;5012586;28;20058;-38
2022/12/22 15:09:42;;;;;;;31.77;4.72;;;;;;;;;;5014053;28;20042;-38
2022/12/22 15:12:18;;;;;;;28.73;4.78;;;;;;;;;;5013838;28;20022;-38
2022/12/22 15:14:47;;;;;;;26.48;3.90;;;;;;;;;;5011726;28;20041;-39
2022/12/22 15:17:24;;;;;;;38.50;5.05;;;;;;;;;;5011626;28;20046;-39
2022/12/22 15:19:52;;;;;;;30.42;5.05;;;;;;;;;;5013786;28;20041;-38
2022/12/22 15:22:19;;;;;;;33.72;4.50;;;;;;;;;;5013998;28;20357;-38
2022/12/22 15:24:46;;;;;;;40.33;5.45;;;;;;;;;;5012205;28;20053;-39
2022/12/22 15:27:13;;;;;;;30.17;4.95;;;;;;;;;;5011283;28;20084;-39
2022/12/22 15:29:40;;;;;;;33.35;5.15;;;;;;;;;;5012379;28;20088;-39
2022/12/22 15:32:11;;;;;;;27.42;4.97;;;;;;;;;;5012911;28;20018;-38
2022/12/22 15:34:39;;;;;;;36.50;4.60;;;;;;;;;;5012872;28;20100;-38
2022/12/22 15:37:06;;;;;;;27.30;5.50;;;;;;;;;;4991329;28;20351;-40
2022/12/22 15:39:33;;;;;;;42.20;4.90;;;;;;;;;;5012697;28;20117;-39
2022/12/22 15:42:00;;;;;;;22.77;4.97;;;;;;;;;;4995181;28;20032;-38
2022/12/22 15:44:27;;;;;;;44.13;5.95;;;;;;;;;;5012886;28;20030;-38
2022/12/22 15:46:55;;;;;;;31.83;5.07;;;;;;;;;;5010482;28;20064;-39
2022/12/22 15:49:24;;;;;;;36.05;5.20;;;;;;;;;;5009722;28;20084;-39
2022/12/22 15:51:54;;;;;;;34.55;5.47;;;;;;;;;;5010335;28;20456;-38
2022/12/22 15:54:21;;;;;;;35.90;5.50;;;;;;;;;;5012983;28;20112;-39
2022/12/22 15:56:50;;;;;;;34.72;5.55;;;;;;;;;;5011565;28;20029;-39
2022/12/22 15:59:19;;;;;;;33.92;5.47;;;;;;;;;;5012621;28;20030;-38
2022/12/22 16:01:46;;;;;;;29.25;4.90;;;;;;;;;;5011295;28;20029;-38
2022/12/22 16:04:13;;;;;;;36.85;5.85;;;;;;;;;;5012962;28;20036;-38
2022/12/22 16:06:40;;;;;;;48.40;6.45;;;;;;;;;;5011096;28;20093;-38
2022/12/22 16:09:09;;;;;;;43.08;6.57;;;;;;;;;;5012928;28;20383;-39
2022/12/22 16:11:40;;;;;;;50.22;7.15;;;;;;;;;;5011237;28;20030;-39
2022/12/22 16:14:10;;;;;;;49.00;7.10;;;;;;;;;;5012305;28;20537;-39
2022/12/22 16:16:37;;;;;;;49.22;7.70;;;;;;;;;;4993987;28;20034;-38
2022/12/22 16:19:05;;;;;;;49.17;7.43;;;;;;;;;;5012662;28;20049;-39
2022/12/22 16:21:32;;;;;;;57.03;8.30;;;;;;;;;;5012542;28;20052;-39
2022/12/22 16:24:02;;;;;;;71.00;7.88;;;;;;;;;;5010356;28;20487;-39
2022/12/22 16:26:29;;;;;;;48.00;7.93;;;;;;;;;;5011935;28;20057;-38
2022/12/22 16:28:57;;;;;;;44.15;7.53;;;;;;;;;;5010683;28;20040;-39
2022/12/22 16:31:25;;;;;;;45.72;6.57;;;;;;;;;;4994706;28;20030;-39
2022/12/22 16:33:52;;;;;;;37.53;6.68;;;;;;;;;;5012457;28;20038;-40
2022/12/22 16:36:19;;;;;;;46.00;6.82;;;;;;;;;;5010104;28;20037;-39
2022/12/22 16:38:46;;;;;;;38.90;6.10;;;;;;;;;;5010523;28;20041;-38
2022/12/22 16:41:24;;;;;;;31.33;5.43;;;;;;;;;;5012406;28;20125;-38
2022/12/22 16:43:51;;;;;;;27.95;5.15;;;;;;;;;;5012106;28;20033;-38
2022/12/22 16:46:19;;;;;;;39.03;6.15;;;;;;;;;;5011783;28;20730;-38
2022/12/22 16:48:57;;;;;;;39.75;5.90;;;;;;;;;;5008922;28;20029;-38
2022/12/22 16:51:32;;;;;;;36.67;6.53;;;;;;;;;;5012164;28;20029;-38
2022/12/22 16:53:59;;;;;;;28.58;5.47;;;;;;;;;;5012180;28;20148;-38
2022/12/22 16:56:27;;;;;;;31.17;5.85;;;;;;;;;;5012090;28;20033;-38
2022/12/22 16:58:57;;;;;;;31.13;5.70;;;;;;;;;;5008690;28;20073;-36
2022/12/22 17:01:26;;;;;;;27.73;5.97;;;;;;;;;;5011734;28;20040;-38
2022/12/22 17:03:54;;;;;;;32.03;6.13;;;;;;;;;;5010439;28;20038;-39
2022/12/22 17:06:21;;;;;;;23.88;5.40;;;;;;;;;;5011143;28;20056;-38
2022/12/22 17:08:48;;;;;;;27.33;5.63;;;;;;;;;;5010251;28;20037;-38
2022/12/22 17:11:28;;;;;;;19.98;5.20;;;;;;;;;;5009528;28;20030;-38
2022/12/22 17:14:01;;;;;;;22.63;5.00;;;;;;;;;;5011462;28;20041;-39
2022/12/22 17:16:28;;;;;;;26.60;5.03;;;;;;;;;;5012000;28;20134;-40
2022/12/22 17:18:54;;;;;;;24.63;5.00;;;;;;;;;;5010235;28;20438;-38
2022/12/22 17:21:22;;;;;;;26.90;4.68;;;;;;;;;;5007987;28;20030;-38
2022/12/22 17:23:53;;;;;;;23.83;4.85;;;;;;;;;;5009363;28;20037;-38
2022/12/22 17:26:22;;;;;;;27.13;4.93;;;;;;;;;;5011431;28;20044;-38
2022/12/22 17:28:49;;;;;;;17.52;4.82;;;;;;;;;;5009671;28;20327;-38
2022/12/22 17:31:18;;;;;;;22.95;5.15;;;;;;;;;;5010829;28;20118;-38
2022/12/22 17:33:45;;;;;;;21.67;5.07;;;;;;;;;;4991680;28;20037;-39
2022/12/22 17:36:27;;;;;;;29.02;5.38;;;;;;;;;;5008272;28;20518;-38
2022/12/22 17:38:54;;;;;;;25.67;4.85;;;;;;;;;;5018478;28;20475;-38
2022/12/22 17:41:21;;;;;;;31.75;5.20;;;;;;;;;;5015202;28;20038;-38
2022/12/22 17:43:49;;;;;;;26.23;5.03;;;;;;;;;;5015359;28;20099;-38
2022/12/22 17:46:17;;;;;;;36.80;6.05;;;;;;;;;;5013536;28;20527;-38
2022/12/22 17:48:45;;;;;;;26.27;5.35;;;;;;;;;;5010562;28;20132;-40
2022/12/22 17:51:16;;;;;;;26.38;5.75;;;;;;;;;;5012528;28;20057;-38
2022/12/22 17:53:43;;;;;;;24.38;4.93;;;;;;;;;;5014742;28;20022;-39
2022/12/22 17:56:20;;;;;;;18.85;5.18;;;;;;;;;;5014736;28;20033;-38
2022/12/22 17:58:48;;;;;;;25.83;5.18;;;;;;;;;;5010774;28;20114;-38
2022/12/22 18:01:27;;;;;;;31.52;6.03;;;;;;;;;;5014336;28;20044;-38
2022/12/22 18:03:55;;;;;;;21.83;5.10;;;;;;;;;;4997538;28;20037;-38
2022/12/22 18:06:24;;;;;;;15.38;4.15;;;;;;;;;;5014189;28;20049;-38
2022/12/22 18:08:52;;;;;;;28.77;4.90;;;;;;;;;;5013130;28;20056;-39
2022/12/22 18:11:19;;;;;;;28.48;5.13;;;;;;;;;;5012168;28;20109;-38
2022/12/22 18:13:46;;;;;;;26.50;4.95;;;;;;;;;;5014245;28;20026;-38
2022/12/22 18:16:15;;;;;;;25.85;4.57;;;;;;;;;;5013726;28;20068;-38
2022/12/22 18:18:42;;;;;;;24.38;5.07;;;;;;;;;;5012925;28;20365;-38
2022/12/22 18:21:14;;;;;;;25.90;4.75;;;;;;;;;;5012726;28;20029;-37
2022/12/22 18:23:41;;;;;;;28.33;4.90;;;;;;;;;;5027400;28;20435;-41
2022/12/22 18:26:10;;;;;;;22.23;4.65;;;;;;;;;;5014040;28;20038;-39
2022/12/22 18:28:37;;;;;;;15.98;4.38;;;;;;;;;;5012746;28;20040;-38
2022/12/22 18:31:04;;;;;;;16.00;3.97;;;;;;;;;;5013468;28;20117;-38
2022/12/22 18:33:31;;;;;;;23.90;4.20;;;;;;;;;;5011016;28;20137;-42
2022/12/22 18:35:59;;;;;;;17.02;4.22;;;;;;;;;;5010754;28;20084;-38
2022/12/22 18:38:27;;;;;;;21.48;4.03;;;;;;;;;;5009810;28;20125;-38
2022/12/22 18:40:54;;;;;;;28.55;4.63;;;;;;;;;;5010698;28;20029;-39